ADDS METAR Data INFO
IDs: Format: Raw Decoded Include TAF

Data at: 0257 UTC 21 Oct 2017

KINT 210254Z AUTO 00000KT 10SM CLR 15/10 A3027 RMK AO2 SLP244 T01500100 53012
KINT 210154Z 00000KT 10SM CLR 16/10 A3025 RMK AO2 SLP238 T01560100
KINT 210054Z 00000KT 10SM CLR 17/11 A3024 RMK AO2 SLP237 T01670106
KINT 202354Z 00000KT 10SM CLR 17/11 A3024 RMK AO2 SLP235 T01720111 10256 20172 53007
KINT 202254Z 07003KT 10SM CLR 19/12 A3022 RMK AO2 SLP230 T01890117
KINT 202154Z 00000KT 10SM CLR 24/09 A3022 RMK AO2 SLP226 T02390089
KINT 202054Z 08004KT 10SM CLR 24/09 A3021 RMK AO2 SLP225 T02440089 56013
KINT 201954Z 00000KT 10SM CLR 25/08 A3022 RMK AO2 SLP226 T02500078
KINT 201854Z 35006KT 10SM CLR 25/08 A3023 RMK AO2 SLP231 T02500078
KINT 201754Z VRB03KT 10SM CLR 23/08 A3025 RMK AO2 SLP238 T02330083 10244 20089 58021
KINT 201654Z 06006KT 10SM CLR 23/08 A3029 RMK AO2 SLP252 T02330078
KINT 201554Z 04005KT 10SM CLR 23/08 A3031 RMK AO2 SLP256 T02330083
KINT 201454Z 36003KT 10SM CLR 22/08 A3032 RMK AO2 SLP261 T02170078 51013
KINT 201354Z 33004KT 10SM CLR 18/08 A3032 RMK AO2 SLP262 T01780083
KINT 201254Z 00000KT 10SM CLR 12/09 A3030 RMK AO2 SLP259 T01170089
KINT 201154Z 35004KT 10SM CLR 09/06 A3028 RMK AO2 SLP252 T00890061 10128 20072 53016
KINT 201054Z 34003KT 10SM CLR 11/06 A3026 RMK AO2 SLP244 T01060061
KINT 200954Z AUTO 13003KT 10SM CLR 08/06 A3024 RMK AO2 SLP237 T00780061
KINT 200854Z AUTO 00000KT 10SM CLR 08/07 A3023 RMK AO2 SLP232 T00830067 56006
KINT 200754Z AUTO 00000KT 10SM CLR 11/08 A3023 RMK AO2 SLP232 T01060078
KINT 200654Z AUTO 00000KT 10SM CLR 12/08 A3023 RMK AO2 SLP233 T01170078
KINT 200554Z AUTO 00000KT 10SM CLR 12/07 A3025 RMK AO2 SLP237 T01170072 10156 20100 55001
KINT 200454Z AUTO 00000KT 10SM CLR 10/07 A3024 RMK AO2 SLP237 T01000067 402330044
KINT 200354Z AUTO 00000KT 10SM CLR 14/07 A3025 RMK AO2 SLP239 T01440072
KINT 200254Z AUTO 00000KT 10SM CLR 12/08 A3025 RMK AO2 SLP241 T01220078 51004
KINT 200154Z AUTO 00000KT 10SM CLR 13/08 A3025 RMK AO2 SLP239 T01280078
KINT 200054Z AUTO 00000KT 10SM CLR 14/08 A3025 RMK AO2 SLP240 T01390078
KINT 192354Z 00000KT 10SM CLR 14/08 A3024 RMK AO2 SLP239 T01390078 10233 20139 53005
KINT 192254Z 00000KT 10SM CLR 18/07 A3022 RMK AO2 SLP230 T01830067
KINT 192154Z 25003KT 10SM CLR 22/04 A3022 RMK AO2 SLP229 T02220039
KINT 192054Z VRB05KT 10SM CLR 23/04 A3022 RMK AO2 SLP231 T02280044 56017
KINT 191954Z 24003KT 10SM CLR 22/05 A3024 RMK AO2 SLP236 T02220050
KINT 191854Z 30004KT 10SM CLR 22/06 A3025 RMK AO2 SLP241 T02220056
KINT 191754Z 00000KT 10SM CLR 21/06 A3028 RMK AO2 SLP249 T02110061 10211 20050 58019
KINT 191654Z VRB04KT 10SM CLR 19/06 A3030 RMK AO2 SLP256 T01940061
KINT 191554Z 27005KT 10SM CLR 18/04 A3032 RMK AO2 SLP264 T01830044